sensor_id;sensor_type;location;lat;lon;timestamp;P1;durP1;ratioP1;P2;durP2;ratioP2
47896;SDS011;39629;51.400;5.494;2023-11-19T00:03:30;3.08;;;1.75;;
47896;SDS011;39629;51.400;5.494;2023-11-19T00:08:33;3.40;;;1.40;;
47896;SDS011;39629;51.400;5.494;2023-11-19T00:13:35;3.78;;;1.58;;
47896;SDS011;39629;51.400;5.494;2023-11-19T00:18:40;2.63;;;1.17;;
47896;SDS011;39629;51.400;5.494;2023-11-19T00:23:44;2.45;;;1.30;;
47896;SDS011;39629;51.400;5.494;2023-11-19T00:33:51;4.15;;;1.30;;
47896;SDS011;39629;51.400;5.494;2023-11-19T00:38:54;1.98;;;1.05;;
47896;SDS011;39629;51.400;5.494;2023-11-19T00:43:57;4.53;;;1.35;;
47896;SDS011;39629;51.400;5.494;2023-11-19T00:49:02;2.22;;;1.13;;
47896;SDS011;39629;51.400;5.494;2023-11-19T00:54:04;2.88;;;1.10;;
47896;SDS011;39629;51.400;5.494;2023-11-19T00:59:07;3.05;;;1.27;;
47896;SDS011;39629;51.400;5.494;2023-11-19T01:04:11;2.33;;;1.17;;
47896;SDS011;39629;51.400;5.494;2023-11-19T01:09:13;6.93;;;1.33;;
47896;SDS011;39629;51.400;5.494;2023-11-19T01:14:15;6.63;;;1.27;;
47896;SDS011;39629;51.400;5.494;2023-11-19T01:19:19;4.75;;;1.38;;
47896;SDS011;39629;51.400;5.494;2023-11-19T01:24:23;7.30;;;1.25;;
47896;SDS011;39629;51.400;5.494;2023-11-19T01:29:29;6.68;;;1.40;;
47896;SDS011;39629;51.400;5.494;2023-11-19T01:34:34;6.78;;;1.27;;
47896;SDS011;39629;51.400;5.494;2023-11-19T01:39:38;7.78;;;1.60;;
47896;SDS011;39629;51.400;5.494;2023-11-19T01:44:40;4.82;;;1.33;;
47896;SDS011;39629;51.400;5.494;2023-11-19T01:49:46;5.33;;;1.30;;
47896;SDS011;39629;51.400;5.494;2023-11-19T01:54:51;5.10;;;1.30;;
47896;SDS011;39629;51.400;5.494;2023-11-19T01:59:55;7.55;;;1.60;;
47896;SDS011;39629;51.400;5.494;2023-11-19T02:04:59;7.68;;;1.40;;
47896;SDS011;39629;51.400;5.494;2023-11-19T02:10:02;7.32;;;1.65;;
47896;SDS011;39629;51.400;5.494;2023-11-19T02:15:06;8.15;;;1.40;;
47896;SDS011;39629;51.400;5.494;2023-11-19T02:20:10;8.43;;;1.70;;
47896;SDS011;39629;51.400;5.494;2023-11-19T02:25:19;7.68;;;1.70;;
47896;SDS011;39629;51.400;5.494;2023-11-19T02:30:27;11.20;;;1.77;;
47896;SDS011;39629;51.400;5.494;2023-11-19T02:35:29;11.27;;;2.00;;
47896;SDS011;39629;51.400;5.494;2023-11-19T02:40:32;12.82;;;2.10;;
47896;SDS011;39629;51.400;5.494;2023-11-19T02:45:36;14.20;;;1.92;;
47896;SDS011;39629;51.400;5.494;2023-11-19T02:50:38;12.98;;;1.70;;
47896;SDS011;39629;51.400;5.494;2023-11-19T02:55:43;15.73;;;2.58;;
47896;SDS011;39629;51.400;5.494;2023-11-19T03:00:51;10.32;;;1.77;;
47896;SDS011;39629;51.400;5.494;2023-11-19T03:05:58;11.48;;;2.08;;
47896;SDS011;39629;51.400;5.494;2023-11-19T03:11:01;9.25;;;1.55;;
47896;SDS011;39629;51.400;5.494;2023-11-19T03:16:07;19.73;;;2.57;;
47896;SDS011;39629;51.400;5.494;2023-11-19T03:21:10;16.23;;;1.92;;
47896;SDS011;39629;51.400;5.494;2023-11-19T03:26:16;17.73;;;2.17;;
47896;SDS011;39629;51.400;5.494;2023-11-19T03:31:19;13.93;;;1.58;;
47896;SDS011;39629;51.400;5.494;2023-11-19T03:36:22;14.45;;;2.00;;
47896;SDS011;39629;51.400;5.494;2023-11-19T03:41:24;18.95;;;2.55;;
47896;SDS011;39629;51.400;5.494;2023-11-19T03:46:28;15.30;;;2.38;;
47896;SDS011;39629;51.400;5.494;2023-11-19T03:51:31;18.23;;;2.30;;
47896;SDS011;39629;51.400;5.494;2023-11-19T03:56:33;10.68;;;1.95;;
47896;SDS011;39629;51.400;5.494;2023-11-19T04:01:37;12.30;;;2.38;;
47896;SDS011;39629;51.400;5.494;2023-11-19T04:06:40;17.58;;;2.22;;
47896;SDS011;39629;51.400;5.494;2023-11-19T04:11:42;18.80;;;2.35;;
47896;SDS011;39629;51.400;5.494;2023-11-19T04:16:49;19.33;;;2.10;;
47896;SDS011;39629;51.400;5.494;2023-11-19T04:26:54;18.92;;;2.35;;
47896;SDS011;39629;51.400;5.494;2023-11-19T04:31:58;15.38;;;2.00;;
47896;SDS011;39629;51.400;5.494;2023-11-19T04:37:01;15.23;;;2.00;;
47896;SDS011;39629;51.400;5.494;2023-11-19T04:42:05;14.23;;;1.92;;
47896;SDS011;39629;51.400;5.494;2023-11-19T04:47:09;13.68;;;2.45;;
47896;SDS011;39629;51.400;5.494;2023-11-19T04:52:11;15.83;;;2.07;;
47896;SDS011;39629;51.400;5.494;2023-11-19T04:57:13;15.38;;;2.28;;
47896;SDS011;39629;51.400;5.494;2023-11-19T05:02:17;17.83;;;2.42;;
47896;SDS011;39629;51.400;5.494;2023-11-19T05:07:19;13.68;;;1.70;;
47896;SDS011;39629;51.400;5.494;2023-11-19T05:12:27;19.60;;;2.42;;
47896;SDS011;39629;51.400;5.494;2023-11-19T05:17:30;20.33;;;2.95;;
47896;SDS011;39629;51.400;5.494;2023-11-19T05:22:33;20.77;;;2.50;;
47896;SDS011;39629;51.400;5.494;2023-11-19T05:27:36;18.03;;;2.87;;
47896;SDS011;39629;51.400;5.494;2023-11-19T05:32:40;16.42;;;2.30;;
47896;SDS011;39629;51.400;5.494;2023-11-19T05:37:44;18.35;;;2.95;;
47896;SDS011;39629;51.400;5.494;2023-11-19T05:42:49;12.68;;;2.10;;
47896;SDS011;39629;51.400;5.494;2023-11-19T05:47:55;14.80;;;2.08;;
47896;SDS011;39629;51.400;5.494;2023-11-19T05:52:57;16.30;;;2.80;;
47896;SDS011;39629;51.400;5.494;2023-11-19T05:57:59;14.80;;;2.00;;
47896;SDS011;39629;51.400;5.494;2023-11-19T06:03:03;15.23;;;1.92;;
47896;SDS011;39629;51.400;5.494;2023-11-19T06:08:05;20.40;;;2.65;;
47896;SDS011;39629;51.400;5.494;2023-11-19T06:13:08;20.38;;;2.58;;
47896;SDS011;39629;51.400;5.494;2023-11-19T06:18:13;18.60;;;2.40;;
47896;SDS011;39629;51.400;5.494;2023-11-19T06:23:16;16.13;;;2.20;;
47896;SDS011;39629;51.400;5.494;2023-11-19T06:28:19;18.48;;;2.47;;
47896;SDS011;39629;51.400;5.494;2023-11-19T06:33:23;22.53;;;2.50;;
47896;SDS011;39629;51.400;5.494;2023-11-19T06:38:25;17.50;;;2.35;;
47896;SDS011;39629;51.400;5.494;2023-11-19T06:43:27;22.70;;;2.70;;
47896;SDS011;39629;51.400;5.494;2023-11-19T06:48:31;17.00;;;2.78;;
47896;SDS011;39629;51.400;5.494;2023-11-19T06:53:33;21.80;;;2.33;;
47896;SDS011;39629;51.400;5.494;2023-11-19T06:58:37;21.23;;;2.20;;
47896;SDS011;39629;51.400;5.494;2023-11-19T07:03:41;17.10;;;2.17;;
47896;SDS011;39629;51.400;5.494;2023-11-19T07:13:46;16.17;;;1.98;;
47896;SDS011;39629;51.400;5.494;2023-11-19T07:18:51;21.88;;;2.30;;
47896;SDS011;39629;51.400;5.494;2023-11-19T07:23:55;22.25;;;3.17;;
47896;SDS011;39629;51.400;5.494;2023-11-19T07:28:57;22.45;;;3.03;;
47896;SDS011;39629;51.400;5.494;2023-11-19T07:34:02;16.98;;;2.38;;
47896;SDS011;39629;51.400;5.494;2023-11-19T07:39:04;24.23;;;3.47;;
47896;SDS011;39629;51.400;5.494;2023-11-19T07:49:14;14.20;;;2.50;;
47896;SDS011;39629;51.400;5.494;2023-11-19T07:54:17;23.83;;;3.03;;
47896;SDS011;39629;51.400;5.494;2023-11-19T07:59:19;18.17;;;2.83;;
47896;SDS011;39629;51.400;5.494;2023-11-19T08:04:23;20.35;;;2.22;;
47896;SDS011;39629;51.400;5.494;2023-11-19T08:09:26;22.13;;;2.45;;
47896;SDS011;39629;51.400;5.494;2023-11-19T08:14:29;17.85;;;2.40;;
47896;SDS011;39629;51.400;5.494;2023-11-19T08:19:36;14.63;;;2.22;;
47896;SDS011;39629;51.400;5.494;2023-11-19T08:24:40;17.63;;;2.10;;
47896;SDS011;39629;51.400;5.494;2023-11-19T08:29:43;15.52;;;1.85;;
47896;SDS011;39629;51.400;5.494;2023-11-19T08:34:48;14.77;;;2.22;;
47896;SDS011;39629;51.400;5.494;2023-11-19T08:39:52;26.83;;;2.75;;
47896;SDS011;39629;51.400;5.494;2023-11-19T08:44:55;19.17;;;2.65;;
47896;SDS011;39629;51.400;5.494;2023-11-19T08:49:59;17.20;;;2.38;;
47896;SDS011;39629;51.400;5.494;2023-11-19T08:55:03;15.98;;;2.60;;
47896;SDS011;39629;51.400;5.494;2023-11-19T09:00:07;15.25;;;3.35;;
47896;SDS011;39629;51.400;5.494;2023-11-19T09:05:12;22.40;;;2.95;;
47896;SDS011;39629;51.400;5.494;2023-11-19T09:10:16;16.27;;;2.38;;
47896;SDS011;39629;51.400;5.494;2023-11-19T09:15:20;20.15;;;2.88;;
47896;SDS011;39629;51.400;5.494;2023-11-19T09:20:25;24.63;;;2.35;;
47896;SDS011;39629;51.400;5.494;2023-11-19T09:30:29;15.43;;;2.75;;
47896;SDS011;39629;51.400;5.494;2023-11-19T09:35:38;16.95;;;2.22;;
47896;SDS011;39629;51.400;5.494;2023-11-19T09:40:41;15.60;;;2.13;;
47896;SDS011;39629;51.400;5.494;2023-11-19T09:45:47;19.05;;;2.40;;
47896;SDS011;39629;51.400;5.494;2023-11-19T09:50:53;16.02;;;2.08;;
47896;SDS011;39629;51.400;5.494;2023-11-19T09:55:56;19.85;;;2.63;;
47896;SDS011;39629;51.400;5.494;2023-11-19T10:01:00;21.10;;;2.72;;
47896;SDS011;39629;51.400;5.494;2023-11-19T10:06:09;18.80;;;2.08;;
47896;SDS011;39629;51.400;5.494;2023-11-19T10:11:13;14.05;;;2.00;;
47896;SDS011;39629;51.400;5.494;2023-11-19T10:16:17;19.02;;;2.35;;
47896;SDS011;39629;51.400;5.494;2023-11-19T10:21:21;16.57;;;2.03;;
47896;SDS011;39629;51.400;5.494;2023-11-19T10:26:24;15.32;;;2.03;;
47896;SDS011;39629;51.400;5.494;2023-11-19T10:31:28;20.80;;;2.25;;
47896;SDS011;39629;51.400;5.494;2023-11-19T10:36:40;14.10;;;1.88;;
47896;SDS011;39629;51.400;5.494;2023-11-19T10:41:42;22.77;;;2.50;;
47896;SDS011;39629;51.400;5.494;2023-11-19T10:46:45;23.08;;;2.55;;
47896;SDS011;39629;51.400;5.494;2023-11-19T10:51:52;16.63;;;2.55;;
47896;SDS011;39629;51.400;5.494;2023-11-19T10:56:59;12.73;;;1.85;;
47896;SDS011;39629;51.400;5.494;2023-11-19T11:12:13;16.45;;;2.33;;
47896;SDS011;39629;51.400;5.494;2023-11-19T11:17:19;11.32;;;2.00;;
47896;SDS011;39629;51.400;5.494;2023-11-19T11:22:28;11.07;;;1.83;;
47896;SDS011;39629;51.400;5.494;2023-11-19T11:27:51;11.98;;;2.20;;
47896;SDS011;39629;51.400;5.494;2023-11-19T11:33:06;17.60;;;2.25;;
47896;SDS011;39629;51.400;5.494;2023-11-19T11:38:27;12.80;;;1.60;;
47896;SDS011;39629;51.400;5.494;2023-11-19T11:43:43;10.95;;;1.85;;
47896;SDS011;39629;51.400;5.494;2023-11-19T11:53:51;10.45;;;1.77;;
47896;SDS011;39629;51.400;5.494;2023-11-19T11:58:55;14.32;;;1.80;;
47896;SDS011;39629;51.400;5.494;2023-11-19T12:04:00;12.95;;;2.75;;
47896;SDS011;39629;51.400;5.494;2023-11-19T12:09:04;13.93;;;3.67;;
47896;SDS011;39629;51.400;5.494;2023-11-19T12:14:08;18.92;;;2.78;;
47896;SDS011;39629;51.400;5.494;2023-11-19T12:19:10;17.80;;;2.10;;
47896;SDS011;39629;51.400;5.494;2023-11-19T12:24:15;14.77;;;2.40;;
47896;SDS011;39629;51.400;5.494;2023-11-19T12:34:21;13.23;;;2.50;;
47896;SDS011;39629;51.400;5.494;2023-11-19T12:39:25;20.73;;;2.30;;
47896;SDS011;39629;51.400;5.494;2023-11-19T12:44:31;14.70;;;2.08;;
47896;SDS011;39629;51.400;5.494;2023-11-19T12:49:34;12.45;;;1.70;;
47896;SDS011;39629;51.400;5.494;2023-11-19T12:54:38;14.65;;;2.28;;
47896;SDS011;39629;51.400;5.494;2023-11-19T12:59:41;9.25;;;1.45;;
47896;SDS011;39629;51.400;5.494;2023-11-19T13:04:43;10.93;;;1.95;;
47896;SDS011;39629;51.400;5.494;2023-11-19T13:09:48;18.57;;;2.47;;
47896;SDS011;39629;51.400;5.494;2023-11-19T13:14:51;14.07;;;1.70;;
47896;SDS011;39629;51.400;5.494;2023-11-19T13:19:56;13.40;;;1.90;;
47896;SDS011;39629;51.400;5.494;2023-11-19T13:25:00;13.07;;;1.70;;
47896;SDS011;39629;51.400;5.494;2023-11-19T13:30:05;12.18;;;1.70;;
47896;SDS011;39629;51.400;5.494;2023-11-19T13:35:08;13.48;;;2.08;;
47896;SDS011;39629;51.400;5.494;2023-11-19T13:40:13;10.20;;;1.95;;
47896;SDS011;39629;51.400;5.494;2023-11-19T13:45:15;12.57;;;1.80;;
47896;SDS011;39629;51.400;5.494;2023-11-19T13:50:19;12.60;;;1.70;;
47896;SDS011;39629;51.400;5.494;2023-11-19T13:55:25;11.82;;;1.80;;
47896;SDS011;39629;51.400;5.494;2023-11-19T14:05:29;14.20;;;1.95;;
47896;SDS011;39629;51.400;5.494;2023-11-19T14:10:33;9.57;;;1.80;;
47896;SDS011;39629;51.400;5.494;2023-11-19T14:15:37;18.60;;;2.28;;
47896;SDS011;39629;51.400;5.494;2023-11-19T14:20:40;14.00;;;2.03;;
47896;SDS011;39629;51.400;5.494;2023-11-19T14:25:44;15.65;;;2.53;;
47896;SDS011;39629;51.400;5.494;2023-11-19T14:30:48;14.45;;;2.35;;
47896;SDS011;39629;51.400;5.494;2023-11-19T14:35:57;9.93;;;2.08;;
47896;SDS011;39629;51.400;5.494;2023-11-19T14:41:01;9.57;;;1.60;;
47896;SDS011;39629;51.400;5.494;2023-11-19T14:46:05;12.70;;;2.00;;
47896;SDS011;39629;51.400;5.494;2023-11-19T14:51:08;7.45;;;1.70;;
47896;SDS011;39629;51.400;5.494;2023-11-19T14:56:12;12.00;;;1.90;;
47896;SDS011;39629;51.400;5.494;2023-11-19T15:01:14;10.98;;;2.15;;
47896;SDS011;39629;51.400;5.494;2023-11-19T15:06:17;12.27;;;2.28;;
47896;SDS011;39629;51.400;5.494;2023-11-19T15:11:21;8.35;;;1.83;;
47896;SDS011;39629;51.400;5.494;2023-11-19T15:16:24;15.10;;;1.80;;
47896;SDS011;39629;51.400;5.494;2023-11-19T15:21:31;17.92;;;2.72;;
47896;SDS011;39629;51.400;5.494;2023-11-19T15:26:36;11.10;;;2.17;;
47896;SDS011;39629;51.400;5.494;2023-11-19T15:31:38;14.93;;;2.20;;
47896;SDS011;39629;51.400;5.494;2023-11-19T15:36:41;8.80;;;1.70;;
47896;SDS011;39629;51.400;5.494;2023-11-19T15:41:45;10.35;;;2.00;;
47896;SDS011;39629;51.400;5.494;2023-11-19T15:46:47;9.45;;;1.40;;
47896;SDS011;39629;51.400;5.494;2023-11-19T15:51:50;12.32;;;1.75;;
47896;SDS011;39629;51.400;5.494;2023-11-19T15:56:53;10.23;;;1.50;;
47896;SDS011;39629;51.400;5.494;2023-11-19T16:01:56;12.20;;;1.67;;
47896;SDS011;39629;51.400;5.494;2023-11-19T16:06:59;11.35;;;1.90;;
47896;SDS011;39629;51.400;5.494;2023-11-19T16:12:04;10.93;;;1.57;;
47896;SDS011;39629;51.400;5.494;2023-11-19T16:17:07;11.88;;;1.73;;
47896;SDS011;39629;51.400;5.494;2023-11-19T16:22:09;14.88;;;1.90;;
47896;SDS011;39629;51.400;5.494;2023-11-19T16:27:14;11.98;;;2.10;;
47896;SDS011;39629;51.400;5.494;2023-11-19T16:32:16;12.37;;;2.07;;
47896;SDS011;39629;51.400;5.494;2023-11-19T16:37:19;10.88;;;1.75;;
47896;SDS011;39629;51.400;5.494;2023-11-19T16:42:24;14.97;;;2.20;;
47896;SDS011;39629;51.400;5.494;2023-11-19T16:47:26;12.02;;;2.10;;
47896;SDS011;39629;51.400;5.494;2023-11-19T16:52:29;11.48;;;1.65;;
47896;SDS011;39629;51.400;5.494;2023-11-19T16:57:34;8.38;;;1.83;;
47896;SDS011;39629;51.400;5.494;2023-11-19T17:02:37;10.77;;;1.92;;
47896;SDS011;39629;51.400;5.494;2023-11-19T17:07:42;13.02;;;1.77;;
47896;SDS011;39629;51.400;5.494;2023-11-19T17:12:46;10.80;;;1.88;;
47896;SDS011;39629;51.400;5.494;2023-11-19T17:17:49;16.08;;;2.35;;
47896;SDS011;39629;51.400;5.494;2023-11-19T17:22:52;15.50;;;2.40;;
47896;SDS011;39629;51.400;5.494;2023-11-19T17:27:58;12.32;;;1.83;;
47896;SDS011;39629;51.400;5.494;2023-11-19T17:33:01;9.90;;;2.00;;
47896;SDS011;39629;51.400;5.494;2023-11-19T17:38:05;7.75;;;1.75;;
47896;SDS011;39629;51.400;5.494;2023-11-19T17:43:10;10.43;;;1.93;;
47896;SDS011;39629;51.400;5.494;2023-11-19T17:53:15;10.48;;;1.80;;
47896;SDS011;39629;51.400;5.494;2023-11-19T17:58:19;10.45;;;1.70;;
47896;SDS011;39629;51.400;5.494;2023-11-19T18:03:22;5.10;;;1.40;;
47896;SDS011;39629;51.400;5.494;2023-11-19T18:08:25;7.07;;;1.27;;
47896;SDS011;39629;51.400;5.494;2023-11-19T18:13:30;9.70;;;1.52;;
47896;SDS011;39629;51.400;5.494;2023-11-19T18:18:34;10.15;;;1.90;;
47896;SDS011;39629;51.400;5.494;2023-11-19T18:23:37;11.13;;;1.50;;
47896;SDS011;39629;51.400;5.494;2023-11-19T18:28:56;6.53;;;1.60;;
47896;SDS011;39629;51.400;5.494;2023-11-19T18:34:00;9.13;;;1.20;;
47896;SDS011;39629;51.400;5.494;2023-11-19T18:39:04;9.23;;;1.77;;
47896;SDS011;39629;51.400;5.494;2023-11-19T18:44:11;8.32;;;1.63;;
47896;SDS011;39629;51.400;5.494;2023-11-19T18:49:14;3.67;;;1.25;;
47896;SDS011;39629;51.400;5.494;2023-11-19T18:54:16;11.35;;;1.60;;
47896;SDS011;39629;51.400;5.494;2023-11-19T18:59:23;5.75;;;1.58;;
47896;SDS011;39629;51.400;5.494;2023-11-19T19:04:25;4.40;;;1.40;;
47896;SDS011;39629;51.400;5.494;2023-11-19T19:09:28;9.43;;;2.55;;
47896;SDS011;39629;51.400;5.494;2023-11-19T19:14:32;7.40;;;1.63;;
47896;SDS011;39629;51.400;5.494;2023-11-19T19:19:35;5.30;;;2.03;;
47896;SDS011;39629;51.400;5.494;2023-11-19T19:24:38;6.55;;;1.20;;
47896;SDS011;39629;51.400;5.494;2023-11-19T19:29:42;5.18;;;1.80;;
47896;SDS011;39629;51.400;5.494;2023-11-19T19:34:44;7.90;;;1.67;;
47896;SDS011;39629;51.400;5.494;2023-11-19T19:39:47;11.40;;;2.28;;
47896;SDS011;39629;51.400;5.494;2023-11-19T19:44:50;9.00;;;1.40;;
47896;SDS011;39629;51.400;5.494;2023-11-19T19:49:52;8.83;;;1.77;;
47896;SDS011;39629;51.400;5.494;2023-11-19T19:54:55;10.20;;;1.60;;
47896;SDS011;39629;51.400;5.494;2023-11-19T20:00:00;10.85;;;1.35;;
47896;SDS011;39629;51.400;5.494;2023-11-19T20:05:11;6.63;;;1.55;;
47896;SDS011;39629;51.400;5.494;2023-11-19T20:10:13;7.97;;;1.30;;
47896;SDS011;39629;51.400;5.494;2023-11-19T20:15:17;8.80;;;1.70;;
47896;SDS011;39629;51.400;5.494;2023-11-19T20:20:22;9.32;;;1.45;;
47896;SDS011;39629;51.400;5.494;2023-11-19T20:25:25;8.73;;;1.15;;
47896;SDS011;39629;51.400;5.494;2023-11-19T20:30:29;6.00;;;1.40;;
47896;SDS011;39629;51.400;5.494;2023-11-19T20:35:31;9.18;;;1.98;;
47896;SDS011;39629;51.400;5.494;2023-11-19T20:40:34;9.85;;;1.60;;
47896;SDS011;39629;51.400;5.494;2023-11-19T20:45:37;7.90;;;1.40;;
47896;SDS011;39629;51.400;5.494;2023-11-19T20:50:40;6.68;;;1.13;;
47896;SDS011;39629;51.400;5.494;2023-11-19T20:55:42;8.25;;;1.65;;
47896;SDS011;39629;51.400;5.494;2023-11-19T21:00:47;4.57;;;1.27;;
47896;SDS011;39629;51.400;5.494;2023-11-19T21:10:54;5.18;;;1.20;;
47896;SDS011;39629;51.400;5.494;2023-11-19T21:16:01;8.73;;;0.93;;
47896;SDS011;39629;51.400;5.494;2023-11-19T21:21:04;6.38;;;1.42;;
47896;SDS011;39629;51.400;5.494;2023-11-19T21:26:07;3.17;;;1.08;;
47896;SDS011;39629;51.400;5.494;2023-11-19T21:31:16;4.95;;;0.90;;
47896;SDS011;39629;51.400;5.494;2023-11-19T21:36:19;5.13;;;1.05;;
47896;SDS011;39629;51.400;5.494;2023-11-19T21:41:21;5.63;;;1.13;;
47896;SDS011;39629;51.400;5.494;2023-11-19T21:46:25;5.55;;;1.05;;
47896;SDS011;39629;51.400;5.494;2023-11-19T21:51:29;5.93;;;1.23;;
47896;SDS011;39629;51.400;5.494;2023-11-19T21:56:31;8.32;;;1.10;;
47896;SDS011;39629;51.400;5.494;2023-11-19T22:01:35;4.50;;;1.25;;
47896;SDS011;39629;51.400;5.494;2023-11-19T22:06:38;7.20;;;1.55;;
47896;SDS011;39629;51.400;5.494;2023-11-19T22:11:40;3.50;;;1.10;;
47896;SDS011;39629;51.400;5.494;2023-11-19T22:16:44;6.38;;;1.50;;
47896;SDS011;39629;51.400;5.494;2023-11-19T22:21:47;5.25;;;1.27;;
47896;SDS011;39629;51.400;5.494;2023-11-19T22:26:50;6.45;;;1.27;;
47896;SDS011;39629;51.400;5.494;2023-11-19T22:31:54;8.23;;;1.30;;
47896;SDS011;39629;51.400;5.494;2023-11-19T22:36:56;6.82;;;1.33;;
47896;SDS011;39629;51.400;5.494;2023-11-19T22:41:58;6.22;;;1.30;;
47896;SDS011;39629;51.400;5.494;2023-11-19T22:47:02;10.13;;;1.40;;
47896;SDS011;39629;51.400;5.494;2023-11-19T22:52:05;6.70;;;1.38;;
47896;SDS011;39629;51.400;5.494;2023-11-19T22:57:07;6.88;;;1.20;;
47896;SDS011;39629;51.400;5.494;2023-11-19T23:02:12;9.80;;;1.42;;
47896;SDS011;39629;51.400;5.494;2023-11-19T23:07:15;6.32;;;1.60;;
47896;SDS011;39629;51.400;5.494;2023-11-19T23:12:17;6.10;;;1.42;;
47896;SDS011;39629;51.400;5.494;2023-11-19T23:17:21;7.88;;;1.80;;
47896;SDS011;39629;51.400;5.494;2023-11-19T23:22:27;7.10;;;1.35;;
47896;SDS011;39629;51.400;5.494;2023-11-19T23:27:29;5.47;;;1.50;;
47896;SDS011;39629;51.400;5.494;2023-11-19T23:32:34;7.32;;;1.45;;
47896;SDS011;39629;51.400;5.494;2023-11-19T23:42:38;9.75;;;1.50;;
47896;SDS011;39629;51.400;5.494;2023-11-19T23:47:44;7.93;;;1.67;;
47896;SDS011;39629;51.400;5.494;2023-11-19T23:52:46;7.43;;;1.35;;
47896;SDS011;39629;51.400;5.494;2023-11-19T23:57:49;4.00;;;1.15;;
